createdAt,value
2019-02-14T00:02:28.876Z,-4.35
2019-02-14T00:05:17.739Z,-4.40
2019-02-14T00:07:47.289Z,-4.47
2019-02-14T00:10:16.796Z,-4.49
2019-02-14T00:12:46.318Z,-4.60
2019-02-14T00:15:15.842Z,-4.53
2019-02-14T00:17:45.668Z,-4.45
2019-02-14T00:20:15.169Z,-4.42
2019-02-14T00:22:44.728Z,-4.49
2019-02-14T00:25:14.282Z,-4.39
2019-02-14T00:27:43.805Z,-4.42
2019-02-14T00:30:13.324Z,-4.47
2019-02-14T00:32:42.925Z,-4.54
2019-02-14T00:35:12.436Z,-4.50
2019-02-14T00:37:41.935Z,-4.59
2019-02-14T00:40:11.657Z,-4.66
2019-02-14T00:42:41.161Z,-4.69
2019-02-14T00:45:10.735Z,-4.84
2019-02-14T00:47:40.287Z,-4.92
2019-02-14T00:50:09.780Z,-4.93
2019-02-14T00:52:39.287Z,-4.91
2019-02-14T00:55:28.137Z,-4.82
2019-02-14T00:57:57.648Z,-4.83
2019-02-14T01:00:46.514Z,-4.78
2019-02-14T01:03:48.582Z,-4.78
2019-02-14T01:06:18.101Z,-4.77
2019-02-14T01:08:47.609Z,-4.91
2019-02-14T01:11:17.152Z,-4.83
2019-02-14T01:13:46.648Z,-4.79
2019-02-14T01:16:16.166Z,-4.73
2019-02-14T01:18:45.665Z,-4.80
2019-02-14T01:21:15.182Z,-4.81
2019-02-14T01:23:45.941Z,-4.97
2019-02-14T01:26:15.469Z,-5.04
2019-02-14T01:28:44.959Z,-4.94
2019-02-14T01:31:14.574Z,-5.08
2019-02-14T01:33:44.068Z,-5.16
2019-02-14T01:36:15.203Z,-5.19
2019-02-14T01:38:44.733Z,-5.11
2019-02-14T01:41:14.256Z,-5.17
2019-02-14T01:43:43.771Z,-4.71
2019-02-14T01:46:13.294Z,-4.52
2019-02-14T01:48:43.756Z,-4.91
2019-02-14T01:51:13.270Z,-5.10
2019-02-14T01:53:42.800Z,-5.15
2019-02-14T01:56:12.315Z,-5.20
2019-02-14T01:58:41.851Z,-5.19
2019-02-14T02:01:12.085Z,-5.23
2019-02-14T02:03:41.586Z,-5.24
2019-02-14T02:06:11.110Z,-5.31
2019-02-14T02:08:40.607Z,-5.25
2019-02-14T02:11:10.601Z,-5.30
2019-02-14T02:13:41.040Z,-5.28
2019-02-14T02:16:10.590Z,-5.29
2019-02-14T02:18:40.086Z,-5.28
2019-02-14T02:21:09.633Z,-5.28
2019-02-14T02:23:39.235Z,-5.41
2019-02-14T02:26:09.478Z,-5.40
2019-02-14T02:28:38.979Z,-5.44
2019-02-14T02:31:08.694Z,-5.29
2019-02-14T02:33:38.194Z,-5.43
2019-02-14T02:36:07.746Z,-5.44
2019-02-14T02:38:37.743Z,-5.47
2019-02-14T02:41:07.263Z,-5.63
2019-02-14T02:43:36.759Z,-5.62
2019-02-14T02:46:06.342Z,-5.57
2019-02-14T02:48:35.876Z,-5.47
2019-02-14T02:51:06.057Z,-5.20
2019-02-14T02:53:35.558Z,-5.32
2019-02-14T02:56:05.109Z,-5.51
2019-02-14T02:58:34.608Z,-5.49
2019-02-14T03:01:04.196Z,-5.51
2019-02-14T03:03:34.427Z,-5.54
2019-02-14T03:06:10.307Z,-5.62
2019-02-14T03:08:35.166Z,-5.56
2019-02-14T03:11:04.718Z,-5.78
2019-02-14T03:13:34.206Z,-5.75
2019-02-14T03:16:03.753Z,-5.68
2019-02-14T03:18:33.285Z,-5.62
2019-02-14T03:21:02.808Z,-5.64
2019-02-14T03:23:32.336Z,-5.58
2019-02-14T03:26:01.855Z,-5.42
2019-02-14T03:28:31.430Z,-5.34
2019-02-14T03:31:00.976Z,-5.27
2019-02-14T03:33:30.471Z,-5.33
2019-02-14T03:36:00.001Z,-5.25
2019-02-14T03:38:29.507Z,-5.23
2019-02-14T03:40:59.105Z,-5.25
2019-02-14T03:43:28.611Z,-5.30
2019-02-14T03:45:58.164Z,-5.27
2019-02-14T03:48:27.670Z,-5.29
2019-02-14T03:50:57.266Z,-5.22
2019-02-14T03:53:26.765Z,-5.21
2019-02-14T03:55:56.287Z,-5.13
2019-02-14T03:58:25.788Z,-5.10
2019-02-14T04:00:55.309Z,-5.11
2019-02-14T04:03:24.813Z,-5.13
2019-02-14T04:05:54.317Z,-5.11
2019-02-14T04:08:23.834Z,-4.94
2019-02-14T04:10:53.352Z,-4.63
2019-02-14T04:13:22.877Z,-4.97
2019-02-14T04:15:52.446Z,-5.09
2019-02-14T04:18:21.947Z,-5.24
2019-02-14T04:20:51.467Z,-5.28
2019-02-14T04:23:21.017Z,-5.27
2019-02-14T04:25:50.535Z,-5.19
2019-02-14T04:28:20.036Z,-5.04
2019-02-14T04:30:49.545Z,-5.05
2019-02-14T04:33:19.075Z,-5.05
2019-02-14T04:35:48.581Z,-5.06
2019-02-14T04:38:18.090Z,-5.17
2019-02-14T04:40:47.593Z,-5.21
2019-02-14T04:43:17.116Z,-5.26
2019-02-14T04:45:46.651Z,-5.28
2019-02-14T04:48:16.177Z,-5.29
2019-02-14T04:50:45.711Z,-5.20
2019-02-14T04:53:15.259Z,-5.19
2019-02-14T04:55:44.762Z,-5.29
2019-02-14T04:58:15.559Z,-5.39
2019-02-14T05:00:45.071Z,-5.38
2019-02-14T05:03:14.571Z,-4.93
2019-02-14T05:05:44.114Z,-5.08
2019-02-14T05:08:13.630Z,-5.13
2019-02-14T05:10:44.238Z,-5.27
2019-02-14T05:13:13.756Z,-5.48
2019-02-14T05:15:43.258Z,-5.57
2019-02-14T05:18:12.814Z,-5.69
2019-02-14T05:20:42.312Z,-5.60
2019-02-14T05:23:12.810Z,-5.56
2019-02-14T05:25:42.333Z,-5.49
2019-02-14T05:28:11.860Z,-5.56
2019-02-14T05:30:41.383Z,-5.57
2019-02-14T05:33:10.901Z,-5.51
2019-02-14T05:35:41.502Z,-5.51
2019-02-14T05:38:11.021Z,-5.47
2019-02-14T05:40:40.551Z,-5.41
2019-02-14T05:43:10.079Z,-5.38
2019-02-14T05:45:39.609Z,-5.35
2019-02-14T05:48:10.371Z,-5.38
2019-02-14T05:50:39.871Z,-5.35
2019-02-14T05:53:09.391Z,-5.28
2019-02-14T05:55:38.916Z,-5.23
2019-02-14T05:58:08.529Z,-5.24
2019-02-14T06:00:39.533Z,-5.21
2019-02-14T06:03:09.077Z,-5.16
2019-02-14T06:05:38.568Z,-5.13
2019-02-14T06:08:08.093Z,-5.21
2019-02-14T06:10:37.607Z,-5.24
2019-02-14T06:13:07.828Z,-5.15
2019-02-14T06:15:37.379Z,-5.13
2019-02-14T06:18:06.883Z,-5.06
2019-02-14T06:20:36.410Z,-4.99
2019-02-14T06:23:05.963Z,-4.98
2019-02-14T06:25:36.517Z,-4.92
2019-02-14T06:28:06.156Z,-4.88
2019-02-14T06:30:35.689Z,-4.46
2019-02-14T06:33:05.231Z,-4.73
2019-02-14T06:35:34.749Z,-4.78
2019-02-14T06:38:05.061Z,-4.69
2019-02-14T06:40:34.584Z,-4.50
2019-02-14T06:43:04.091Z,-4.52
2019-02-14T06:45:33.711Z,-4.48
2019-02-14T06:48:03.254Z,-4.46
2019-02-14T06:50:34.988Z,-4.41
2019-02-14T06:53:04.651Z,-4.37
2019-02-14T06:55:34.150Z,-4.06
2019-02-14T06:58:03.663Z,-3.62
2019-02-14T07:00:33.161Z,-3.49
2019-02-14T07:03:02.667Z,-3.92
2019-02-14T07:05:32.179Z,-4.05
2019-02-14T07:08:01.734Z,-4.06
2019-02-14T07:10:31.324Z,-3.53
2019-02-14T07:13:00.858Z,-3.58
2019-02-14T07:15:30.356Z,-3.32
2019-02-14T07:17:59.874Z,-2.77
2019-02-14T07:20:29.372Z,-2.91
2019-02-14T07:22:58.872Z,-2.48
2019-02-14T07:25:28.434Z,-2.48
2019-02-14T07:27:58.061Z,-2.40
2019-02-14T07:30:28.970Z,-2.21
2019-02-14T07:32:58.491Z,-1.91
2019-02-14T07:35:28.066Z,-1.68
2019-02-14T07:37:57.574Z,-1.56
2019-02-14T07:40:27.124Z,-1.26
2019-02-14T07:42:56.700Z,-0.73
2019-02-14T07:45:26.279Z,-0.72
2019-02-14T07:47:55.806Z,-0.93
2019-02-14T07:50:25.676Z,-0.85
2019-02-14T07:52:55.175Z,-0.91
2019-02-14T07:55:24.708Z,-0.59
2019-02-14T07:57:54.235Z,-0.04
2019-02-14T08:00:23.733Z,0.89
2019-02-14T08:02:53.261Z,1.65
2019-02-14T08:05:22.783Z,1.52
2019-02-14T08:07:52.305Z,1.86
2019-02-14T08:10:21.879Z,2.18
2019-02-14T08:12:51.377Z,3.82
2019-02-14T08:15:20.939Z,7.30
2019-02-14T08:17:50.466Z,11.30
2019-02-14T08:20:21.901Z,12.31
2019-02-14T08:22:51.392Z,13.56
2019-02-14T08:25:20.981Z,16.48
2019-02-14T08:27:50.473Z,15.64
2019-02-14T08:30:22.673Z,13.98
2019-02-14T08:32:52.194Z,12.62
2019-02-14T08:35:21.797Z,12.37
2019-02-14T08:37:51.280Z,11.92
2019-02-14T08:40:27.234Z,11.68
2019-02-14T08:42:58.574Z,11.62
2019-02-14T08:45:28.064Z,12.05
2019-02-14T08:47:57.579Z,14.89
2019-02-14T08:50:27.115Z,13.23
2019-02-14T08:52:56.631Z,11.64
2019-02-14T08:55:26.173Z,11.35
2019-02-14T08:57:55.674Z,11.47
2019-02-14T09:00:25.280Z,11.88
2019-02-14T09:02:54.786Z,12.86
2019-02-14T09:05:24.304Z,13.96
2019-02-14T09:07:55.074Z,13.07
2019-02-14T09:10:24.688Z,11.85
2019-02-14T09:12:54.301Z,12.51
2019-02-14T09:15:24.464Z,13.33
2019-02-14T09:17:53.965Z,12.74
2019-02-14T09:20:23.543Z,12.02
2019-02-14T09:22:53.035Z,12.56
2019-02-14T09:25:22.549Z,15.87
2019-02-14T09:27:53.288Z,14.52
2019-02-14T09:30:22.848Z,14.45
2019-02-14T09:32:52.339Z,11.59
2019-02-14T09:35:21.871Z,11.57
2019-02-14T09:37:51.396Z,10.52
2019-02-14T09:40:21.819Z,9.13
2019-02-14T09:42:51.323Z,9.83
2019-02-14T09:45:20.840Z,10.01
2019-02-14T09:47:50.322Z,10.98
2019-02-14T09:50:19.858Z,11.32
2019-02-14T09:52:49.936Z,12.16
2019-02-14T09:55:19.442Z,11.31
2019-02-14T09:57:49.046Z,11.14
2019-02-14T10:00:19.727Z,11.01
2019-02-14T10:02:49.205Z,9.81
2019-02-14T10:05:18.806Z,8.92
2019-02-14T10:07:48.318Z,8.56
2019-02-14T10:10:24.905Z,7.88
2019-02-14T10:12:54.376Z,8.56
2019-02-14T10:15:23.890Z,10.15
2019-02-14T10:17:53.381Z,10.63
2019-02-14T10:20:23.421Z,9.62
2019-02-14T10:22:52.947Z,7.55
2019-02-14T10:25:22.449Z,8.45
2019-02-14T10:27:51.972Z,9.09
2019-02-14T10:30:24.911Z,9.25
2019-02-14T10:32:54.393Z,8.80
2019-02-14T10:35:23.906Z,8.84
2019-02-14T10:37:53.414Z,9.08
2019-02-14T10:40:22.941Z,9.15
2019-02-14T10:42:52.425Z,9.40
2019-02-14T10:45:24.997Z,10.04
2019-02-14T10:47:54.494Z,10.48
2019-02-14T10:50:24.014Z,11.57
2019-02-14T10:52:53.564Z,12.49
2019-02-14T10:55:23.068Z,11.45
2019-02-14T10:57:52.560Z,11.44
2019-02-14T11:00:27.404Z,12.93
2019-02-14T11:02:56.911Z,12.38
2019-02-14T11:05:26.448Z,13.63
2019-02-14T11:07:55.938Z,14.30
2019-02-14T11:10:25.458Z,16.05
2019-02-14T11:12:54.993Z,16.19
2019-02-14T11:15:26.014Z,15.92
2019-02-14T11:17:55.589Z,15.65
2019-02-14T11:20:25.184Z,17.27
2019-02-14T11:22:54.721Z,17.51
2019-02-14T11:25:39.247Z,15.41
2019-02-14T11:28:08.751Z,16.19
2019-02-14T11:30:38.265Z,16.83
2019-02-14T11:33:07.786Z,15.71
2019-02-14T11:35:37.318Z,17.02
2019-02-14T11:38:06.866Z,18.55
2019-02-14T11:40:36.360Z,19.07
2019-02-14T11:43:05.946Z,19.16
2019-02-14T11:45:35.444Z,17.35
2019-02-14T11:48:04.952Z,17.83
2019-02-14T11:50:34.505Z,18.06
2019-02-14T11:53:03.994Z,18.04
2019-02-14T11:55:33.508Z,17.80
2019-02-14T11:58:03.000Z,17.41
2019-02-14T12:00:32.591Z,17.21
2019-02-14T12:03:02.083Z,16.99
2019-02-14T12:05:31.617Z,18.23
2019-02-14T12:08:01.108Z,17.40
2019-02-14T12:10:30.657Z,18.15
2019-02-14T12:13:00.154Z,18.10
2019-02-14T12:15:29.684Z,17.47
2019-02-14T12:17:59.185Z,17.69
2019-02-14T12:20:28.769Z,18.04
2019-02-14T12:22:58.275Z,17.80
2019-02-14T12:25:31.373Z,17.80
2019-02-14T12:28:00.918Z,17.85
2019-02-14T12:30:30.508Z,17.65
2019-02-14T12:33:00.013Z,16.13
2019-02-14T12:35:29.525Z,15.62
2019-02-14T12:37:59.049Z,15.89
2019-02-14T12:40:28.537Z,15.07
2019-02-14T12:42:58.068Z,14.07
2019-02-14T12:45:28.295Z,14.91
2019-02-14T12:47:57.782Z,15.27
2019-02-14T12:50:27.291Z,16.38
2019-02-14T12:52:56.848Z,18.07
2019-02-14T12:55:26.403Z,18.00
2019-02-14T12:57:55.902Z,17.79
2019-02-14T13:00:25.799Z,17.91
2019-02-14T13:02:55.318Z,17.24
2019-02-14T13:05:24.829Z,17.68
2019-02-14T13:07:54.331Z,17.21
2019-02-14T13:10:23.827Z,18.35
2019-02-14T13:12:53.370Z,18.91
2019-02-14T13:15:27.215Z,18.41
2019-02-14T13:17:56.740Z,18.51
2019-02-14T13:20:26.318Z,18.09
2019-02-14T13:22:55.854Z,15.92
2019-02-14T13:25:25.366Z,19.01
2019-02-14T13:27:54.901Z,17.60
2019-02-14T13:30:26.712Z,18.58
2019-02-14T13:32:56.301Z,17.81
2019-02-14T13:35:25.795Z,17.38
2019-02-14T13:37:55.377Z,22.45
2019-02-14T13:40:24.833Z,18.53
2019-02-14T13:42:55.102Z,16.70
2019-02-14T13:45:25.574Z,17.87
2019-02-14T13:47:55.077Z,22.44
2019-02-14T13:50:24.594Z,22.26
2019-02-14T13:52:54.119Z,18.73
2019-02-14T13:55:23.610Z,19.49
2019-02-14T13:57:53.130Z,19.80
2019-02-14T14:00:26.855Z,21.04
2019-02-14T14:02:56.398Z,16.89
2019-02-14T14:05:25.894Z,17.18
2019-02-14T14:07:55.415Z,17.48
2019-02-14T14:10:24.916Z,16.48
2019-02-14T14:12:54.466Z,17.36
2019-02-14T14:15:23.951Z,16.61
2019-02-14T14:17:53.563Z,15.83
2019-02-14T14:20:23.075Z,13.89
2019-02-14T14:22:52.575Z,13.36
2019-02-14T14:25:22.121Z,14.13
2019-02-14T14:27:51.634Z,13.67
2019-02-14T14:30:21.217Z,13.14
2019-02-14T14:32:50.815Z,13.34
2019-02-14T14:35:20.324Z,12.97
2019-02-14T14:37:49.828Z,12.82
2019-02-14T14:40:20.582Z,13.00
2019-02-14T14:42:49.993Z,12.81
2019-02-14T14:45:22.727Z,12.68
2019-02-14T14:47:52.251Z,12.85
2019-02-14T14:50:21.740Z,12.81
2019-02-14T14:52:51.268Z,12.42
2019-02-14T14:55:20.781Z,12.09
2019-02-14T14:57:50.307Z,11.83
2019-02-14T15:00:20.593Z,11.82
2019-02-14T15:02:50.120Z,11.23
2019-02-14T15:05:19.612Z,11.43
2019-02-14T15:07:49.146Z,11.43
2019-02-14T15:10:18.671Z,11.50
2019-02-14T15:12:49.425Z,11.33
2019-02-14T15:15:18.911Z,11.22
2019-02-14T15:17:48.435Z,10.92
2019-02-14T15:20:17.929Z,10.67
2019-02-14T15:22:47.456Z,10.61
2019-02-14T15:25:16.951Z,10.25
2019-02-14T15:27:46.479Z,10.05
2019-02-14T15:30:15.984Z,9.82
2019-02-14T15:32:45.512Z,9.74
2019-02-14T15:35:15.008Z,9.79
2019-02-14T15:37:47.159Z,9.37
2019-02-14T15:40:15.760Z,9.33
2019-02-14T15:42:45.311Z,9.28
2019-02-14T15:45:14.826Z,9.12
2019-02-14T15:47:44.358Z,9.61
2019-02-14T15:50:14.151Z,9.52
2019-02-14T15:52:43.670Z,9.35
2019-02-14T15:55:13.205Z,9.10
2019-02-14T15:57:44.657Z,8.84
2019-02-14T16:00:15.205Z,8.61
2019-02-14T16:02:44.712Z,8.44
2019-02-14T16:05:14.623Z,8.38
2019-02-14T16:07:45.456Z,8.13
2019-02-14T16:10:18.664Z,7.89
2019-02-14T16:12:46.298Z,7.38
2019-02-14T16:15:15.783Z,6.97
2019-02-14T16:17:45.295Z,6.66
2019-02-14T16:20:15.777Z,6.29
2019-02-14T16:22:46.189Z,5.96
2019-02-14T16:25:15.642Z,5.62
2019-02-14T16:27:46.397Z,5.35
2019-02-14T16:30:16.656Z,5.61
2019-02-14T16:32:46.192Z,5.30
2019-02-14T16:35:15.721Z,4.79
2019-02-14T16:37:46.515Z,4.50
2019-02-14T16:40:16.454Z,4.22
2019-02-14T16:42:45.997Z,3.93
2019-02-14T16:45:15.484Z,3.98
2019-02-14T16:47:44.967Z,3.64
2019-02-14T16:50:14.512Z,3.31
2019-02-14T16:52:44.006Z,3.06
2019-02-14T16:55:13.548Z,2.96
2019-02-14T16:57:43.060Z,2.88
2019-02-14T17:00:13.530Z,2.75
2019-02-14T17:02:43.053Z,2.63
2019-02-14T17:05:12.574Z,2.48
2019-02-14T17:07:42.096Z,2.45
2019-02-14T17:10:12.483Z,2.34
2019-02-14T17:12:41.982Z,2.22
2019-02-14T17:15:11.826Z,2.06
2019-02-14T17:17:41.341Z,1.89
2019-02-14T17:20:12.069Z,1.84
2019-02-14T17:22:41.591Z,1.70
2019-02-14T17:25:11.415Z,1.57
2019-02-14T17:27:40.961Z,1.45
2019-02-14T17:30:11.374Z,1.32
2019-02-14T17:32:40.918Z,1.24
2019-02-14T17:35:10.466Z,1.07
2019-02-14T17:37:39.982Z,1.60
2019-02-14T17:40:10.587Z,1.58
2019-02-14T17:42:40.198Z,1.36
2019-02-14T17:45:10.628Z,1.24
2019-02-14T17:47:40.432Z,0.85
2019-02-14T17:50:10.288Z,0.51
2019-02-14T17:52:39.806Z,0.36
2019-02-14T17:55:10.753Z,0.27
2019-02-14T17:57:40.297Z,0.26
2019-02-14T18:00:12.666Z,0.28
2019-02-14T18:02:42.371Z,0.34
2019-02-14T18:05:11.931Z,0.13
2019-02-14T18:07:41.475Z,0.06
2019-02-14T18:10:14.188Z,-0.04
2019-02-14T18:12:43.704Z,-0.07
2019-02-14T18:15:14.960Z,-0.12
2019-02-14T18:17:44.488Z,-0.03
2019-02-14T18:20:13.979Z,-0.20
2019-02-14T18:22:43.498Z,-0.26
2019-02-14T18:25:13.648Z,-0.32
2019-02-14T18:27:43.179Z,-0.47
2019-02-14T18:30:14.481Z,-0.57
2019-02-14T18:32:44.020Z,-0.49
2019-02-14T18:35:13.886Z,-0.36
2019-02-14T18:37:43.413Z,-0.35
2019-02-14T18:40:13.486Z,-0.50
2019-02-14T18:42:46.426Z,-0.65
2019-02-14T18:45:16.235Z,-0.76
2019-02-14T18:47:45.796Z,-0.82
2019-02-14T18:50:15.996Z,-0.62
2019-02-14T18:52:45.504Z,-0.85
2019-02-14T18:55:15.003Z,-0.91
2019-02-14T18:57:44.535Z,-1.03
2019-02-14T19:00:19.104Z,-1.06
2019-02-14T19:02:48.628Z,-1.09
2019-02-14T19:05:18.131Z,-1.16
2019-02-14T19:07:47.679Z,-1.19
2019-02-14T19:10:18.104Z,-1.09
2019-02-14T19:12:47.644Z,-0.95
2019-02-14T19:15:17.303Z,-1.14
2019-02-14T19:17:46.830Z,-1.30
2019-02-14T19:20:16.326Z,-1.32
2019-02-14T19:22:45.912Z,-1.40
2019-02-14T19:25:15.444Z,-1.32
2019-02-14T19:27:44.979Z,-1.26
2019-02-14T19:30:15.037Z,-1.12
2019-02-14T19:32:44.589Z,-1.41
2019-02-14T19:35:22.426Z,-1.49
2019-02-14T19:37:45.384Z,-1.49
2019-02-14T19:40:14.974Z,-1.67
2019-02-14T19:42:44.478Z,-1.53
2019-02-14T19:45:14.015Z,-1.41
2019-02-14T19:47:43.524Z,-1.68
2019-02-14T19:50:14.564Z,-1.77
2019-02-14T19:52:44.070Z,-1.84
2019-02-14T19:55:13.675Z,-1.86
2019-02-14T19:57:43.179Z,-1.93
2019-02-14T20:00:16.459Z,-2.01
2019-02-14T20:02:45.962Z,-2.02
2019-02-14T20:05:15.525Z,-2.01
2019-02-14T20:07:45.028Z,-1.97
2019-02-14T20:10:17.523Z,-1.97
2019-02-14T20:12:47.036Z,-1.89
2019-02-14T20:15:21.261Z,-1.96
2019-02-14T20:17:50.745Z,-1.99
2019-02-14T20:20:20.281Z,-2.09
2019-02-14T20:22:49.785Z,-2.19
2019-02-14T20:25:26.438Z,-2.31
2019-02-14T20:27:55.951Z,-2.27
2019-02-14T20:30:25.484Z,-2.21
2019-02-14T20:33:03.882Z,-2.21
2019-02-14T20:35:26.290Z,-2.21
2019-02-14T20:37:55.818Z,-2.21
2019-02-14T20:40:25.368Z,-2.25
2019-02-14T20:42:54.863Z,-2.31
2019-02-14T20:45:24.411Z,-2.34
2019-02-14T20:47:57.057Z,-2.22
2019-02-14T20:50:25.201Z,-2.34
2019-02-14T20:52:54.707Z,-2.43
2019-02-14T20:55:27.689Z,-2.45
2019-02-14T20:57:57.190Z,-2.51
2019-02-14T21:00:28.393Z,-2.60
2019-02-14T21:02:57.878Z,-2.63
2019-02-14T21:05:27.863Z,-2.64
2019-02-14T21:07:57.386Z,-2.58
2019-02-14T21:10:26.988Z,-2.55
2019-02-14T21:12:56.482Z,-2.52
2019-02-14T21:15:26.022Z,-2.54
2019-02-14T21:17:56.763Z,-2.56
2019-02-14T21:20:26.295Z,-2.51
2019-02-14T21:22:55.832Z,-2.52
2019-02-14T21:25:25.422Z,-2.61
2019-02-14T21:27:55.605Z,-2.69
2019-02-14T21:30:25.675Z,-2.62
2019-02-14T21:32:55.172Z,-2.68
2019-02-14T21:35:24.907Z,-2.74
2019-02-14T21:37:54.555Z,-2.79
2019-02-14T21:40:24.357Z,-2.80
2019-02-14T21:42:54.030Z,-2.82
2019-02-14T21:45:23.554Z,-2.89
2019-02-14T21:47:53.104Z,-2.91
2019-02-14T21:50:22.718Z,-2.88
2019-02-14T21:52:52.243Z,-2.90
2019-02-14T21:55:23.037Z,-2.96
2019-02-14T21:57:52.640Z,-2.95
2019-02-14T22:00:28.686Z,-3.11
2019-02-14T22:02:58.217Z,-3.15
2019-02-14T22:05:27.782Z,-3.21
2019-02-14T22:07:57.303Z,-3.19
2019-02-14T22:10:26.808Z,-3.20
2019-02-14T22:12:56.633Z,-3.22
2019-02-14T22:15:30.302Z,-3.14
2019-02-14T22:18:00.161Z,-3.15
2019-02-14T22:20:29.650Z,-3.10
2019-02-14T22:22:59.484Z,-3.11
2019-02-14T22:25:28.992Z,-3.17
2019-02-14T22:27:58.508Z,-3.21
2019-02-14T22:30:28.037Z,-3.22
2019-02-14T22:32:57.560Z,-3.23
2019-02-14T22:35:27.077Z,-3.24
2019-02-14T22:37:56.589Z,-3.24
2019-02-14T22:40:26.130Z,-3.31
2019-02-14T22:42:55.633Z,-3.31
2019-02-14T22:45:25.163Z,-3.38
2019-02-14T22:47:54.738Z,-3.44
2019-02-14T22:50:24.508Z,-3.43
2019-02-14T22:52:54.030Z,-3.40
2019-02-14T22:55:23.534Z,-3.46
2019-02-14T22:57:53.084Z,-3.61
2019-02-14T23:00:38.750Z,-3.63
2019-02-14T23:03:08.360Z,-3.58
2019-02-14T23:05:38.042Z,-3.52
2019-02-14T23:08:07.578Z,-3.37
2019-02-14T23:10:37.158Z,-3.51
2019-02-14T23:13:06.708Z,-3.58
2019-02-14T23:15:37.130Z,-3.60
2019-02-14T23:18:06.705Z,-3.61
2019-02-14T23:20:36.397Z,-3.69
2019-02-14T23:23:05.974Z,-3.72
2019-02-14T23:25:35.747Z,-3.74
2019-02-14T23:28:05.249Z,-3.78
2019-02-14T23:30:34.742Z,-3.84
2019-02-14T23:33:05.241Z,-3.83
2019-02-14T23:35:34.749Z,-3.84
2019-02-14T23:38:04.797Z,-3.92
2019-02-14T23:40:34.296Z,-3.92
2019-02-14T23:43:04.897Z,-3.96
2019-02-14T23:45:34.613Z,-3.83
2019-02-14T23:48:04.201Z,-3.79
2019-02-14T23:50:33.709Z,-3.89
2019-02-14T23:53:03.224Z,-3.95
2019-02-14T23:55:32.753Z,-3.96
2019-02-14T23:58:02.958Z,-4.03
